createdAt,value
2018-06-04T00:02:17.702Z,19.10
2018-06-04T00:04:45.484Z,18.97
2018-06-04T00:07:13.289Z,19.63
2018-06-04T00:09:41.143Z,19.10
2018-06-04T00:12:10.012Z,18.80
2018-06-04T00:14:37.838Z,18.53
2018-06-04T00:17:06.388Z,19.67
2018-06-04T00:19:34.238Z,19.63
2018-06-04T00:22:02.083Z,19.27
2018-06-04T00:24:29.928Z,19.83
2018-06-04T00:26:58.203Z,22.27
2018-06-04T00:29:26.061Z,22.60
2018-06-04T00:31:54.501Z,21.00
2018-06-04T00:34:22.307Z,21.53
2018-06-04T00:36:52.222Z,20.63
2018-06-04T00:39:19.943Z,20.73
2018-06-04T00:41:47.587Z,22.07
2018-06-04T00:44:15.429Z,22.63
2018-06-04T00:46:44.281Z,20.53
2018-06-04T00:49:12.055Z,21.57
2018-06-04T00:51:39.921Z,21.83
2018-06-04T00:54:07.584Z,21.57
2018-06-04T00:56:35.421Z,22.47
2018-06-04T00:59:03.265Z,23.03
2018-06-04T01:01:31.069Z,22.90
2018-06-04T01:03:58.883Z,23.60
2018-06-04T01:06:26.671Z,24.20
2018-06-04T01:08:54.459Z,21.37
2018-06-04T01:11:22.267Z,23.30
2018-06-04T01:13:50.076Z,24.60
2018-06-04T01:16:17.922Z,25.73
2018-06-04T01:18:45.699Z,25.80
2018-06-04T01:21:13.503Z,25.50
2018-06-04T01:23:41.332Z,24.27
2018-06-04T01:26:09.180Z,24.47
2018-06-04T01:28:37.012Z,26.60
2018-06-04T01:31:04.890Z,26.67
2018-06-04T01:33:32.740Z,25.30
2018-06-04T01:36:00.548Z,26.17
2018-06-04T01:38:28.313Z,25.90
2018-06-04T01:40:56.185Z,25.10
2018-06-04T01:43:23.967Z,26.00
2018-06-04T01:45:51.734Z,27.97
2018-06-04T01:48:19.532Z,26.20
2018-06-04T01:50:47.365Z,26.80
2018-06-04T01:53:15.130Z,27.43
2018-06-04T01:55:42.957Z,26.53
2018-06-04T01:58:12.815Z,26.47
2018-06-04T02:00:40.644Z,27.73
2018-06-04T02:03:08.412Z,29.07
2018-06-04T02:05:36.219Z,30.53
2018-06-04T02:08:04.177Z,29.50
2018-06-04T02:10:31.954Z,27.30
2018-06-04T02:12:59.781Z,31.50
2018-06-04T02:15:27.596Z,28.87
2018-06-04T02:17:55.216Z,30.60
2018-06-04T02:20:23.018Z,33.10
2018-06-04T02:22:50.857Z,32.60
2018-06-04T02:25:18.671Z,31.77
2018-06-04T02:27:47.644Z,32.87
2018-06-04T02:30:15.431Z,32.70
2018-06-04T02:32:43.258Z,34.40
2018-06-04T02:35:11.012Z,33.80
2018-06-04T02:37:38.873Z,34.67
2018-06-04T02:40:06.702Z,33.93
2018-06-04T02:42:34.511Z,32.30
2018-06-04T02:45:02.363Z,32.73
2018-06-04T02:47:30.277Z,33.67
2018-06-04T02:49:58.212Z,34.37
2018-06-04T02:52:26.084Z,34.50
2018-06-04T02:54:54.021Z,34.63
2018-06-04T02:57:21.885Z,36.30
2018-06-04T02:59:49.707Z,33.13
2018-06-04T03:02:17.577Z,35.63
2018-06-04T03:04:45.424Z,38.63
2018-06-04T03:07:13.259Z,37.57
2018-06-04T03:09:41.096Z,34.97
2018-06-04T03:12:08.890Z,35.63
2018-06-04T03:14:36.711Z,32.93
2018-06-04T03:17:04.786Z,35.07
2018-06-04T03:19:32.634Z,35.03
2018-06-04T03:22:00.616Z,35.03
2018-06-04T03:24:28.544Z,35.23
2018-06-04T03:26:56.391Z,34.70
2018-06-04T03:29:24.202Z,35.47
2018-06-04T03:31:52.046Z,35.17
2018-06-04T03:34:19.840Z,36.00
2018-06-04T03:36:47.651Z,36.57
2018-06-04T03:39:15.501Z,36.60
2018-06-04T03:41:43.260Z,36.67
2018-06-04T03:44:11.200Z,39.13
2018-06-04T03:46:40.028Z,39.37
2018-06-04T03:49:07.820Z,37.67
2018-06-04T03:51:35.722Z,42.07
2018-06-04T03:54:03.601Z,39.90
2018-06-04T03:56:31.381Z,43.33
2018-06-04T03:58:59.191Z,41.20
2018-06-04T04:11:07.051Z,44.43
2018-06-04T04:13:34.937Z,46.43
2018-06-04T04:16:02.785Z,47.93
2018-06-04T04:18:30.618Z,48.03
2018-06-04T04:20:59.923Z,47.17
2018-06-04T04:23:27.762Z,48.33
2018-06-04T04:25:55.657Z,49.97
2018-06-04T04:28:23.631Z,48.43
2018-06-04T04:30:51.764Z,48.13
2018-06-04T04:33:19.569Z,48.40
2018-06-04T04:35:47.388Z,50.47
2018-06-04T04:38:15.383Z,51.90
2018-06-04T04:40:43.233Z,51.50
2018-06-04T04:43:11.042Z,47.93
2018-06-04T04:45:38.872Z,47.90
2018-06-04T04:48:06.573Z,50.83
2018-06-04T04:50:34.308Z,48.87
2018-06-04T04:53:02.031Z,46.83
2018-06-04T04:55:29.677Z,48.43
2018-06-04T04:57:57.317Z,47.70
2018-06-04T05:00:24.852Z,48.30
2018-06-04T05:02:52.536Z,48.93
2018-06-04T05:05:20.159Z,47.30
2018-06-04T05:07:49.869Z,47.43
2018-06-04T05:10:17.517Z,47.73
2018-06-04T05:12:45.158Z,46.10
2018-06-04T05:15:12.803Z,47.93
2018-06-04T05:17:40.465Z,47.13
2018-06-04T05:20:08.121Z,46.00
2018-06-04T05:22:35.793Z,47.07
2018-06-04T05:25:03.511Z,46.80
2018-06-04T05:27:31.172Z,45.87
2018-06-04T05:29:59.689Z,46.33
2018-06-04T05:42:12.365Z,46.53
2018-06-04T05:44:40.026Z,47.70
2018-06-04T05:47:07.689Z,46.77
2018-06-04T05:49:35.347Z,47.40
2018-06-04T05:52:03.055Z,46.00
2018-06-04T05:54:30.779Z,45.50
2018-06-04T05:56:58.427Z,44.27
2018-06-04T05:59:26.093Z,46.77
2018-06-04T06:01:53.766Z,45.87
2018-06-04T06:04:21.435Z,45.60
2018-06-04T06:06:49.179Z,45.93
2018-06-04T06:09:16.904Z,45.40
2018-06-04T06:11:44.571Z,44.87
2018-06-04T06:14:12.265Z,44.70
2018-06-04T06:16:39.919Z,44.90
2018-06-04T06:19:07.605Z,45.33
2018-06-04T06:21:35.262Z,43.37
2018-06-04T06:24:02.951Z,44.57
2018-06-04T06:26:30.589Z,44.63
2018-06-04T06:28:58.287Z,44.83
2018-06-04T06:31:25.965Z,45.70
2018-06-04T06:33:53.629Z,46.70
2018-06-04T06:36:21.272Z,45.57
2018-06-04T06:38:48.917Z,45.83
2018-06-04T06:41:16.591Z,45.23
2018-06-04T06:43:44.261Z,43.50
2018-06-04T06:46:11.912Z,45.80
2018-06-04T06:48:39.578Z,43.27
2018-06-04T06:51:07.237Z,43.33
2018-06-04T06:53:34.916Z,41.67
2018-06-04T06:56:02.581Z,42.70
2018-06-04T06:58:30.252Z,42.97
2018-06-04T07:00:57.939Z,43.33
2018-06-04T07:03:25.589Z,40.53
2018-06-04T07:05:53.248Z,40.37
2018-06-04T07:08:21.290Z,41.40
2018-06-04T07:10:49.019Z,40.37
2018-06-04T07:13:16.695Z,40.27
2018-06-04T07:15:44.433Z,39.97
2018-06-04T07:18:12.076Z,40.37
2018-06-04T07:20:39.778Z,39.00
2018-06-04T07:23:07.453Z,38.00
2018-06-04T07:25:35.089Z,39.17
2018-06-04T07:28:02.746Z,39.13
2018-06-04T07:30:30.418Z,39.77
2018-06-04T07:32:58.100Z,40.17
2018-06-04T07:35:25.793Z,41.50
2018-06-04T07:37:53.641Z,39.93
2018-06-04T07:40:21.250Z,37.17
2018-06-04T07:42:48.964Z,38.13
2018-06-04T07:45:16.647Z,35.53
2018-06-04T07:47:44.379Z,37.43
2018-06-04T07:50:15.921Z,37.17
2018-06-04T07:52:43.845Z,36.30
2018-06-04T07:55:11.523Z,37.47
2018-06-04T08:14:23.152Z,37.77
2018-06-04T08:16:50.835Z,36.33
2018-06-04T08:19:18.532Z,35.53
2018-06-04T08:21:46.209Z,36.07
2018-06-04T08:24:13.886Z,35.47
2018-06-04T08:26:41.679Z,33.60
2018-06-04T08:29:09.411Z,33.33
2018-06-04T08:31:37.197Z,34.47
2018-06-04T08:34:04.862Z,32.10
2018-06-04T08:36:32.589Z,34.10
2018-06-04T08:39:00.265Z,34.27
2018-06-04T08:41:27.931Z,33.20
2018-06-04T08:43:55.618Z,31.90
2018-06-04T08:46:23.417Z,34.60
2018-06-04T08:48:51.167Z,34.43
2018-06-04T08:51:18.889Z,32.83
2018-06-04T08:53:46.635Z,31.87
2018-06-04T08:56:14.394Z,31.93
2018-06-04T08:58:42.080Z,32.47
2018-06-04T09:01:09.772Z,33.10
2018-06-04T09:04:24.891Z,34.97
2018-06-04T09:06:52.608Z,31.30
2018-06-04T09:09:20.375Z,35.57
2018-06-04T09:11:48.139Z,36.17
2018-06-04T09:14:15.842Z,33.47
2018-06-04T09:16:43.571Z,35.80
2018-06-04T09:19:11.360Z,38.20
2018-06-04T09:21:39.714Z,37.80
2018-06-04T09:24:07.473Z,38.70
2018-06-04T09:26:35.194Z,37.33
2018-06-04T09:29:02.917Z,36.97
2018-06-04T09:31:30.662Z,37.70
2018-06-04T09:33:58.419Z,40.83
2018-06-04T09:36:26.158Z,35.20
2018-06-04T09:38:53.881Z,36.57
2018-06-04T09:41:21.620Z,37.03
2018-06-04T09:43:49.801Z,36.85
2018-06-04T09:46:20.611Z,39.50
2018-06-04T09:48:48.363Z,38.20
2018-06-04T09:51:16.065Z,39.63
2018-06-04T09:53:43.767Z,38.73
2018-06-04T09:56:11.388Z,36.48
2018-06-04T09:58:38.998Z,35.00
2018-06-04T10:01:06.837Z,33.78
2018-06-04T10:03:34.492Z,37.53
2018-06-04T10:06:02.153Z,39.42
2018-06-04T10:08:29.966Z,37.83
2018-06-04T10:11:00.752Z,42.35
2018-06-04T10:13:28.441Z,39.13
2018-06-04T10:15:56.129Z,38.40
2018-06-04T10:18:34.114Z,37.50
2018-06-04T10:21:08.940Z,36.13
2018-06-04T10:23:36.656Z,37.20
2018-06-04T10:26:04.343Z,32.93
2018-06-04T10:28:35.672Z,32.77
2018-06-04T10:31:03.354Z,32.03
2018-06-04T10:33:37.502Z,35.60
2018-06-04T10:36:09.358Z,35.40
2018-06-04T10:38:37.036Z,36.13
2018-06-04T10:41:09.084Z,32.87
2018-06-04T10:43:36.740Z,33.77
2018-06-04T10:46:04.462Z,35.47
2018-06-04T10:48:34.187Z,36.03
2018-06-04T10:51:01.814Z,34.63
2018-06-04T10:53:29.476Z,35.10
2018-06-04T10:58:32.292Z,33.27
2018-06-04T11:01:04.762Z,32.03
2018-06-04T11:03:38.479Z,35.07
2018-06-04T11:06:17.995Z,37.10
2018-06-04T11:08:51.160Z,36.67
2018-06-04T11:11:23.094Z,38.60
2018-06-04T11:14:00.048Z,35.50
2018-06-04T11:16:39.014Z,36.07
2018-06-04T11:19:11.156Z,34.37
2018-06-04T11:21:43.192Z,30.73
2018-06-04T11:24:11.187Z,30.53
2018-06-04T11:26:42.349Z,31.50
2018-06-04T11:29:16.004Z,35.20
2018-06-04T11:31:53.328Z,33.80
2018-06-04T11:34:21.258Z,32.23
2018-06-04T11:36:48.900Z,32.47
2018-06-04T11:39:16.584Z,29.87
2018-06-04T11:41:44.259Z,29.57
2018-06-04T11:44:11.920Z,26.37
2018-06-04T11:46:39.566Z,28.33
2018-06-04T11:49:07.222Z,24.77
2018-06-04T11:51:34.866Z,32.40
2018-06-04T11:54:02.506Z,29.63
2018-06-04T11:56:30.336Z,26.37
2018-06-04T11:58:57.869Z,24.80
2018-06-04T12:01:25.534Z,25.60
2018-06-04T12:03:53.307Z,23.50
2018-06-04T12:06:21.029Z,26.47
2018-06-04T12:08:48.821Z,26.03
2018-06-04T12:11:16.631Z,26.27
2018-06-04T12:13:44.586Z,24.90
2018-06-04T12:16:12.652Z,24.20
2018-06-04T12:18:40.507Z,24.07
2018-06-04T12:21:08.296Z,23.87
2018-06-04T12:23:36.099Z,21.90
2018-06-04T12:26:04.587Z,23.17
2018-06-04T12:28:33.411Z,23.53
2018-06-04T12:31:01.334Z,22.47
2018-06-04T12:33:29.195Z,22.63
2018-06-04T12:35:56.942Z,21.90
2018-06-04T12:38:24.672Z,21.83
2018-06-04T12:40:53.378Z,20.87
2018-06-04T12:43:23.179Z,19.13
2018-06-04T12:45:50.910Z,20.33
2018-06-04T12:48:18.671Z,20.73
2018-06-04T12:50:47.015Z,17.63
2018-06-04T12:53:14.713Z,18.33
2018-06-04T12:55:42.373Z,23.63
2018-06-04T12:58:10.036Z,23.40
2018-06-04T13:00:37.691Z,23.53
2018-06-04T13:03:05.364Z,22.90
2018-06-04T13:05:33.028Z,21.10
2018-06-04T13:08:00.723Z,19.90
2018-06-04T13:10:28.448Z,19.47
2018-06-04T13:12:56.109Z,20.20
2018-06-04T13:15:23.758Z,24.83
2018-06-04T13:17:51.394Z,21.67
2018-06-04T13:20:19.095Z,21.63
2018-06-04T13:22:46.760Z,21.93
2018-06-04T13:25:14.446Z,19.37
2018-06-04T13:27:42.192Z,20.47
2018-06-04T13:30:09.817Z,21.27
2018-06-04T13:32:37.470Z,20.33
2018-06-04T13:35:05.281Z,25.40
2018-06-04T13:37:32.930Z,23.97
2018-06-04T13:40:01.312Z,24.30
2018-06-04T13:42:28.913Z,24.73
2018-06-04T13:44:56.566Z,25.57
2018-06-04T13:47:24.214Z,26.57
2018-06-04T13:49:51.914Z,24.43
2018-06-04T13:52:19.613Z,24.07
2018-06-04T13:54:47.275Z,22.67
2018-06-04T13:57:14.952Z,23.70
2018-06-04T13:59:42.608Z,22.60
2018-06-04T14:02:10.274Z,23.33
2018-06-04T14:04:37.914Z,25.50
2018-06-04T14:07:05.584Z,25.77
2018-06-04T14:09:33.280Z,22.40
2018-06-04T14:12:00.936Z,23.87
2018-06-04T14:14:28.602Z,22.83
2018-06-04T14:16:56.327Z,24.30
2018-06-04T14:19:24.008Z,25.30
2018-06-04T14:21:51.669Z,22.97
2018-06-04T14:24:19.356Z,24.67
2018-06-04T14:26:47.047Z,26.13
2018-06-04T14:29:14.789Z,25.20
2018-06-04T14:31:42.467Z,22.23
2018-06-04T14:34:10.112Z,23.40
2018-06-04T14:36:37.841Z,25.03
2018-06-04T14:39:08.198Z,24.10
2018-06-04T14:41:36.314Z,23.03
2018-06-04T14:44:03.988Z,22.33
2018-06-04T14:46:31.727Z,24.07
2018-06-04T14:48:59.469Z,23.37
2018-06-04T14:51:27.159Z,25.10
2018-06-04T14:53:54.824Z,25.23
2018-06-04T14:56:22.510Z,26.90
2018-06-04T14:58:50.158Z,23.97
2018-06-04T15:01:17.839Z,23.87
2018-06-04T15:03:52.040Z,22.30
2018-06-04T15:06:19.764Z,24.67
2018-06-04T15:08:47.417Z,23.93
2018-06-04T15:11:15.112Z,23.50
2018-06-04T15:13:42.777Z,21.93
2018-06-04T15:16:10.471Z,23.73
2018-06-04T15:18:38.135Z,22.23
2018-06-04T15:21:05.831Z,23.03
2018-06-04T15:23:33.515Z,22.77
2018-06-04T15:26:01.159Z,21.77
2018-06-04T15:28:28.847Z,22.40
2018-06-04T15:30:56.519Z,21.23
2018-06-04T15:33:24.217Z,21.87
2018-06-04T15:35:51.911Z,23.43
2018-06-04T15:38:19.608Z,23.13
2018-06-04T15:40:47.300Z,22.40
2018-06-04T15:43:14.993Z,22.77
2018-06-04T15:45:42.699Z,22.90
2018-06-04T15:48:10.480Z,22.70
2018-06-04T15:50:38.156Z,22.73
2018-06-04T15:53:05.854Z,20.70
2018-06-04T15:55:33.519Z,19.97
2018-06-04T15:58:01.181Z,21.27
2018-06-04T16:00:28.843Z,22.27
2018-06-04T16:02:56.507Z,22.80
2018-06-04T16:05:24.165Z,21.10
2018-06-04T16:07:51.813Z,21.47
2018-06-04T16:10:19.464Z,21.43
2018-06-04T16:12:47.151Z,22.00
2018-06-04T16:15:14.827Z,20.73
2018-06-04T16:17:42.503Z,20.63
2018-06-04T16:20:10.189Z,20.73
2018-06-04T16:22:37.919Z,19.60
2018-06-04T16:25:05.561Z,20.20
2018-06-04T16:27:33.234Z,21.53
2018-06-04T16:30:00.908Z,21.67
2018-06-04T16:32:28.612Z,20.97
2018-06-04T16:34:56.305Z,20.90
2018-06-04T16:37:24.046Z,20.77
2018-06-04T16:39:51.651Z,19.40
2018-06-04T16:42:19.315Z,19.33
2018-06-04T16:44:46.985Z,19.17
2018-06-04T16:47:14.632Z,19.50
2018-06-04T16:49:42.303Z,19.73
2018-06-04T16:52:10.004Z,21.10
2018-06-04T16:54:37.661Z,20.40
2018-06-04T16:57:05.371Z,19.17
2018-06-04T16:59:33.136Z,18.97
2018-06-04T17:02:00.728Z,19.07
2018-06-04T17:04:28.409Z,17.57
2018-06-04T17:06:56.090Z,17.67
2018-06-04T17:09:23.763Z,16.73
2018-06-04T17:11:51.461Z,16.33
2018-06-04T17:14:19.204Z,17.20
2018-06-04T17:16:46.876Z,16.63
2018-06-04T17:19:14.606Z,17.13
2018-06-04T17:21:43.228Z,17.07
2018-06-04T17:24:10.912Z,16.20
2018-06-04T17:26:38.635Z,17.27
2018-06-04T17:29:06.336Z,17.33
2018-06-04T17:31:34.412Z,16.70
2018-06-04T17:34:02.330Z,16.67
2018-06-04T17:36:30.031Z,16.37
2018-06-04T17:38:58.860Z,16.23
2018-06-04T17:41:26.598Z,15.27
2018-06-04T17:53:39.404Z,14.37
2018-06-04T17:56:07.212Z,14.33
2018-06-04T17:58:35.000Z,15.30
2018-06-04T18:01:02.811Z,13.20
2018-06-04T18:03:30.566Z,13.03
2018-06-04T18:05:58.284Z,12.87
2018-06-04T18:08:27.255Z,13.13
2018-06-04T18:10:55.344Z,12.77
2018-06-04T18:13:23.016Z,12.77
2018-06-04T18:15:50.887Z,12.23
2018-06-04T18:18:18.638Z,12.30
2018-06-04T18:20:46.339Z,12.10
2018-06-04T18:23:14.065Z,11.97
2018-06-04T18:35:26.805Z,10.07
2018-06-04T18:37:54.481Z,11.43
2018-06-04T18:40:22.159Z,10.90
2018-06-04T18:42:49.887Z,10.40
2018-06-04T18:45:17.638Z,10.20
2018-06-04T18:47:45.402Z,11.37
2018-06-04T18:50:13.112Z,10.90
2018-06-04T18:52:40.839Z,10.83
2018-06-04T18:55:08.557Z,10.03
2018-06-04T18:57:36.412Z,10.90
2018-06-04T19:00:04.725Z,10.03
2018-06-04T19:02:32.498Z,10.30
2018-06-04T19:05:00.287Z,10.67
2018-06-04T19:07:27.957Z,10.80
2018-06-04T19:09:55.692Z,10.60
2018-06-04T19:12:23.391Z,10.57
2018-06-04T19:14:51.142Z,10.63
2018-06-04T19:17:19.060Z,10.33
2018-06-04T19:19:46.764Z,11.10
2018-06-04T19:22:14.476Z,10.20
2018-06-04T19:24:42.154Z,10.63
2018-06-04T19:27:10.048Z,10.80
2018-06-04T19:29:37.922Z,10.20
2018-06-04T19:32:06.246Z,10.07
2018-06-04T19:34:34.012Z,10.00
2018-06-04T19:37:01.929Z,10.77
2018-06-04T19:39:29.619Z,10.63
2018-06-04T19:41:57.375Z,11.20
2018-06-04T19:44:24.985Z,10.60
2018-06-04T19:46:52.693Z,11.07
2018-06-04T19:49:20.306Z,11.83
2018-06-04T19:51:48.528Z,11.70
2018-06-04T19:54:16.433Z,13.13
2018-06-04T19:56:44.153Z,12.37
2018-06-04T19:59:11.889Z,12.10
2018-06-04T20:01:39.727Z,14.10
2018-06-04T20:04:08.348Z,14.20
2018-06-04T20:06:36.197Z,15.40
2018-06-04T20:09:07.415Z,15.87
2018-06-04T20:11:35.370Z,17.10
2018-06-04T20:14:03.207Z,17.10
2018-06-04T20:16:30.928Z,18.83
2018-06-04T20:18:58.616Z,17.73
2018-06-04T20:21:26.420Z,18.80
2018-06-04T20:23:54.053Z,18.87
2018-06-04T20:26:21.767Z,18.50
2018-06-04T20:28:49.496Z,20.17
2018-06-04T20:31:17.270Z,18.40
2018-06-04T20:33:45.078Z,19.03
2018-06-04T20:36:14.982Z,19.17
2018-06-04T20:38:42.684Z,18.43
2018-06-04T20:41:10.575Z,20.47
2018-06-04T20:43:38.433Z,20.30
2018-06-04T20:46:06.400Z,20.70
2018-06-04T20:48:34.141Z,19.43
2018-06-04T20:51:01.964Z,19.77
2018-06-04T20:53:30.093Z,19.23
2018-06-04T20:55:58.152Z,19.53
2018-06-04T20:58:25.952Z,19.33
2018-06-04T21:00:53.802Z,18.53
2018-06-04T21:03:21.638Z,19.43
2018-06-04T21:05:49.378Z,19.33
2018-06-04T21:08:17.197Z,19.60
2018-06-04T21:10:45.024Z,19.93
2018-06-04T21:13:13.216Z,18.77
2018-06-04T21:15:41.316Z,20.07
2018-06-04T21:18:09.181Z,18.40
2018-06-04T21:20:37.142Z,17.43
2018-06-04T21:23:04.900Z,19.03
2018-06-04T21:25:32.693Z,17.90
2018-06-04T21:28:00.525Z,18.10
2018-06-04T21:30:28.302Z,18.87
2018-06-04T21:32:56.063Z,20.73
2018-06-04T21:35:23.940Z,18.77
2018-06-04T21:37:52.259Z,18.63
2018-06-04T21:40:20.321Z,19.00
2018-06-04T21:42:48.133Z,19.43
2018-06-04T21:45:15.985Z,20.03
2018-06-04T21:47:44.243Z,19.33
2018-06-04T21:50:12.021Z,18.80
2018-06-04T21:52:40.167Z,18.13
2018-06-04T21:55:07.940Z,18.10
2018-06-04T21:57:35.759Z,17.90
2018-06-04T22:00:05.219Z,16.83
2018-06-04T22:02:33.045Z,15.97
2018-06-04T22:05:00.808Z,15.40
2018-06-04T22:07:28.560Z,15.70
2018-06-04T22:09:56.341Z,14.37
2018-06-04T22:12:24.744Z,14.63
2018-06-04T22:14:52.911Z,14.83
2018-06-04T22:17:26.463Z,14.90
2018-06-04T22:19:54.477Z,14.40
2018-06-04T22:22:22.584Z,14.80
2018-06-04T22:24:50.406Z,14.47
2018-06-04T22:27:18.190Z,14.93
2018-06-04T22:29:46.207Z,14.97
2018-06-04T22:32:13.990Z,15.30
2018-06-04T22:34:41.786Z,14.63
2018-06-04T22:37:10.765Z,15.10
2018-06-04T22:39:38.565Z,14.70
2018-06-04T22:42:06.330Z,15.70
2018-06-04T22:44:34.177Z,14.73
2018-06-04T22:47:01.978Z,15.67
2018-06-04T22:49:29.806Z,15.90
2018-06-04T22:51:57.580Z,16.00
2018-06-04T23:04:10.474Z,16.47
2018-06-04T23:06:38.311Z,17.60
2018-06-04T23:09:07.208Z,17.67
2018-06-04T23:11:35.044Z,17.30
2018-06-04T23:14:03.370Z,17.50
2018-06-04T23:16:32.518Z,16.53
2018-06-04T23:19:00.294Z,15.90
2018-06-04T23:21:29.149Z,16.97
2018-06-04T23:23:56.896Z,17.13
2018-06-04T23:26:25.083Z,17.80
2018-06-04T23:28:52.918Z,17.47
2018-06-04T23:31:20.813Z,17.27
2018-06-04T23:33:48.576Z,18.67
2018-06-04T23:36:16.617Z,17.03
2018-06-04T23:38:44.426Z,17.83
2018-06-04T23:41:12.392Z,18.07
2018-06-04T23:43:41.018Z,18.60
2018-06-04T23:46:08.738Z,19.07
2018-06-04T23:48:36.589Z,19.83
2018-06-04T23:51:05.040Z,18.80
2018-06-04T23:53:34.633Z,19.47
2018-06-04T23:56:02.433Z,20.00
2018-06-04T23:58:30.726Z,19.57
